createdAt,value
2023-05-21T00:00:45.779Z,16.10
2023-05-21T00:01:45.786Z,15.30
2023-05-21T00:02:45.786Z,15.90
2023-05-21T00:03:45.854Z,15.60
2023-05-21T00:04:45.756Z,16.20
2023-05-21T00:05:45.773Z,15.00
2023-05-21T00:06:45.708Z,15.80
2023-05-21T00:07:45.682Z,15.60
2023-05-21T00:08:46.006Z,15.30
2023-05-21T00:09:45.706Z,14.60
2023-05-21T00:10:45.665Z,14.50
2023-05-21T00:11:45.659Z,15.50
2023-05-21T00:12:45.740Z,15.70
2023-05-21T00:13:45.658Z,16.10
2023-05-21T00:14:45.620Z,16.00
2023-05-21T00:15:45.620Z,15.30
2023-05-21T00:16:45.782Z,15.10
2023-05-21T00:17:45.717Z,16.00
2023-05-21T00:18:45.637Z,16.60
2023-05-21T00:19:45.601Z,15.20
2023-05-21T00:20:45.626Z,18.10
2023-05-21T00:21:45.607Z,15.10
2023-05-21T00:22:45.586Z,16.10
2023-05-21T00:23:45.550Z,16.30
2023-05-21T00:24:45.544Z,16.50
2023-05-21T00:25:45.571Z,15.00
2023-05-21T00:26:45.616Z,18.30
2023-05-21T00:27:45.874Z,18.80
2023-05-21T00:28:45.542Z,15.80
2023-05-21T00:29:45.619Z,15.60
2023-05-21T00:30:45.541Z,16.40
2023-05-21T00:31:45.601Z,15.30
2023-05-21T00:32:45.574Z,17.40
2023-05-21T00:33:45.499Z,15.60
2023-05-21T00:34:45.486Z,15.70
2023-05-21T00:35:45.550Z,16.60
2023-05-21T00:36:45.510Z,15.90
2023-05-21T00:37:45.450Z,15.60
2023-05-21T00:38:45.441Z,15.00
2023-05-21T00:39:45.452Z,15.60
2023-05-21T00:40:45.470Z,15.50
2023-05-21T00:41:45.519Z,15.60
2023-05-21T00:42:45.475Z,16.30
2023-05-21T00:43:45.420Z,14.90
2023-05-21T00:44:45.482Z,16.10
2023-05-21T00:45:45.527Z,14.90
2023-05-21T00:46:45.412Z,16.00
2023-05-21T00:47:45.456Z,15.70
2023-05-21T00:48:45.384Z,16.80
2023-05-21T00:49:46.378Z,15.10
2023-05-21T00:50:45.392Z,16.70
2023-05-21T00:51:45.364Z,16.30
2023-05-21T00:52:45.365Z,16.70
2023-05-21T00:53:45.366Z,15.60
2023-05-21T00:54:45.342Z,16.80
2023-05-21T00:55:45.494Z,16.80
2023-05-21T00:56:45.378Z,15.40
2023-05-21T00:57:45.314Z,15.20
2023-05-21T00:58:45.272Z,16.80
2023-05-21T00:59:45.280Z,15.60
2023-05-21T01:00:45.277Z,16.80
2023-05-21T01:01:45.430Z,16.30
2023-05-21T01:02:45.360Z,15.90
2023-05-21T01:03:45.284Z,16.10
2023-05-21T01:04:45.250Z,21.20
2023-05-21T01:05:45.297Z,16.10
2023-05-21T01:06:45.257Z,17.20
2023-05-21T01:07:45.206Z,16.30
2023-05-21T01:08:45.199Z,17.00
2023-05-21T01:09:45.244Z,16.70
2023-05-21T01:10:45.236Z,15.60
2023-05-21T01:11:45.210Z,18.00
2023-05-21T01:12:45.205Z,15.80
2023-05-21T01:13:45.172Z,16.30
2023-05-21T01:14:45.217Z,16.10
2023-05-21T01:15:45.165Z,15.70
2023-05-21T01:16:45.179Z,17.20
2023-05-21T01:17:45.165Z,16.80
2023-05-21T01:18:45.315Z,16.90
2023-05-21T01:19:45.256Z,20.50
2023-05-21T01:20:45.175Z,18.20
2023-05-21T01:21:45.159Z,18.60
2023-05-21T01:22:45.165Z,17.60
2023-05-21T01:23:45.109Z,16.30
2023-05-21T01:24:45.113Z,16.90
2023-05-21T01:25:45.066Z,18.00
2023-05-21T01:26:45.067Z,16.10
2023-05-21T01:27:45.080Z,16.60
2023-05-21T01:28:45.035Z,16.60
2023-05-21T01:29:45.071Z,27.50
2023-05-21T01:30:45.032Z,17.50
2023-05-21T01:31:45.030Z,20.30
2023-05-21T01:32:45.051Z,16.40
2023-05-21T01:33:45.084Z,16.30
2023-05-21T01:34:45.020Z,17.20
2023-05-21T01:35:44.985Z,23.10
2023-05-21T01:36:44.983Z,19.00
2023-05-21T01:37:44.996Z,17.20
2023-05-21T01:38:44.974Z,17.00
2023-05-21T01:39:45.013Z,16.80
2023-05-21T01:40:45.005Z,16.50
2023-05-21T01:41:45.000Z,17.90
2023-05-21T01:42:44.943Z,18.70
2023-05-21T01:43:44.962Z,16.80
2023-05-21T01:44:44.931Z,17.20
2023-05-21T01:45:44.945Z,19.10
2023-05-21T01:46:44.996Z,17.00
2023-05-21T01:47:44.940Z,16.90
2023-05-21T01:48:44.894Z,16.70
2023-05-21T01:49:44.879Z,17.50
2023-05-21T01:50:44.919Z,17.20
2023-05-21T01:51:44.879Z,16.60
2023-05-21T01:52:44.872Z,17.10
2023-05-21T01:53:44.856Z,17.70
2023-05-21T01:54:44.851Z,18.00
2023-05-21T01:55:44.852Z,17.20
2023-05-21T01:56:44.847Z,18.10
2023-05-21T01:57:44.825Z,17.20
2023-05-21T01:58:44.819Z,17.80
2023-05-21T01:59:44.913Z,17.90
2023-05-21T02:00:44.828Z,17.00
2023-05-21T02:01:44.885Z,18.10
2023-05-21T02:02:44.849Z,17.10
2023-05-21T02:03:44.906Z,17.10
2023-05-21T02:04:44.755Z,18.00
2023-05-21T02:05:44.785Z,18.20
2023-05-21T02:06:44.746Z,18.00
2023-05-21T02:07:44.744Z,16.90
2023-05-21T02:08:44.758Z,17.70
2023-05-21T02:09:44.734Z,17.90
2023-05-21T02:10:44.722Z,18.30
2023-05-21T02:11:44.718Z,16.90
2023-05-21T02:12:44.699Z,18.20
2023-05-21T02:13:44.732Z,27.20
2023-05-21T02:14:44.684Z,17.20
2023-05-21T02:15:44.677Z,16.90
2023-05-21T02:16:44.711Z,17.30
2023-05-21T02:17:44.718Z,17.80
2023-05-21T02:18:44.758Z,17.00
2023-05-21T02:19:44.674Z,18.00
2023-05-21T02:20:44.664Z,16.80
2023-05-21T02:21:44.644Z,17.20
2023-05-21T02:22:44.683Z,17.90
2023-05-21T02:23:44.643Z,17.20
2023-05-21T02:24:44.611Z,18.30
2023-05-21T02:25:44.645Z,17.80
2023-05-21T02:26:44.594Z,18.40
2023-05-21T02:27:44.633Z,18.20
2023-05-21T02:28:44.621Z,21.50
2023-05-21T02:29:44.569Z,18.20
2023-05-21T02:30:44.599Z,17.00
2023-05-21T02:31:44.562Z,17.20
2023-05-21T02:32:44.579Z,18.30
2023-05-21T02:33:44.614Z,17.80
2023-05-21T02:34:44.539Z,17.90
2023-05-21T02:35:44.573Z,18.10
2023-05-21T02:36:44.553Z,18.10
2023-05-21T02:37:44.669Z,18.00
2023-05-21T02:38:44.524Z,21.50
2023-05-21T02:39:44.496Z,17.00
2023-05-21T02:40:44.508Z,18.10
2023-05-21T02:41:44.543Z,18.20
2023-05-21T02:42:44.500Z,18.30
2023-05-21T02:43:44.467Z,18.40
2023-05-21T02:44:44.438Z,18.00
2023-05-21T02:45:44.450Z,18.00
2023-05-21T02:46:44.483Z,18.00
2023-05-21T02:47:44.457Z,17.90
2023-05-21T02:48:44.480Z,22.60
2023-05-21T02:49:44.420Z,18.60
2023-05-21T02:50:44.458Z,17.30
2023-05-21T02:51:44.401Z,17.80
2023-05-21T02:52:44.403Z,17.20
2023-05-21T02:53:44.372Z,18.20
2023-05-21T02:54:44.365Z,17.60
2023-05-21T02:55:44.362Z,18.50
2023-05-21T02:56:44.357Z,19.90
2023-05-21T02:57:44.395Z,18.00
2023-05-21T02:58:44.538Z,19.30
2023-05-21T02:59:44.324Z,18.50
2023-05-21T03:00:44.323Z,20.40
2023-05-21T03:01:44.383Z,19.00
2023-05-21T03:02:44.399Z,19.20
2023-05-21T03:03:44.330Z,18.50
2023-05-21T03:04:44.284Z,19.40
2023-05-21T03:05:44.273Z,19.40
2023-05-21T03:06:44.268Z,18.40
2023-05-21T03:07:44.281Z,18.30
2023-05-21T03:08:44.252Z,18.50
2023-05-21T03:09:44.265Z,19.70
2023-05-21T03:10:44.298Z,18.80
2023-05-21T03:11:44.255Z,19.40
2023-05-21T03:12:44.226Z,19.50
2023-05-21T03:13:44.291Z,20.90
2023-05-21T03:14:44.252Z,17.90
2023-05-21T03:15:44.184Z,17.70
2023-05-21T03:16:44.223Z,18.20
2023-05-21T03:17:44.207Z,18.70
2023-05-21T03:18:44.226Z,18.00
2023-05-21T03:19:44.167Z,18.50
2023-05-21T03:20:44.165Z,19.00
2023-05-21T03:21:44.152Z,19.10
2023-05-21T03:22:44.151Z,18.50
2023-05-21T03:23:44.153Z,17.70
2023-05-21T03:24:44.161Z,18.80
2023-05-21T03:25:44.113Z,17.70
2023-05-21T03:26:44.127Z,16.70
2023-05-21T03:27:44.105Z,18.90
2023-05-21T03:28:44.086Z,21.30
2023-05-21T03:29:44.072Z,17.80
2023-05-21T03:30:44.097Z,18.20
2023-05-21T03:31:44.137Z,18.30
2023-05-21T03:32:44.143Z,19.00
2023-05-21T03:33:44.061Z,19.20
2023-05-21T03:34:44.057Z,19.30
2023-05-21T03:35:44.037Z,19.20
2023-05-21T03:36:44.032Z,18.50
2023-05-21T03:37:44.040Z,18.90
2023-05-21T03:38:44.009Z,17.50
2023-05-21T03:39:43.986Z,18.90
2023-05-21T03:40:44.006Z,20.60
2023-05-21T03:41:44.006Z,20.10
2023-05-21T03:42:44.014Z,18.60
2023-05-21T03:43:43.998Z,18.70
2023-05-21T03:44:43.960Z,20.00
2023-05-21T03:45:44.596Z,21.50
2023-05-21T03:46:43.959Z,18.90
2023-05-21T03:47:44.008Z,19.50
2023-05-21T03:48:43.922Z,18.20
2023-05-21T03:49:43.928Z,19.40
2023-05-21T03:50:43.918Z,18.40
2023-05-21T03:51:43.898Z,17.80
2023-05-21T03:52:43.924Z,18.90
2023-05-21T03:53:43.882Z,18.90
2023-05-21T03:54:43.892Z,19.20
2023-05-21T03:55:43.876Z,19.90
2023-05-21T03:56:43.854Z,20.20
2023-05-21T03:57:43.885Z,20.10
2023-05-21T03:58:43.860Z,18.80
2023-05-21T03:59:43.846Z,18.80
2023-05-21T04:00:43.847Z,18.30
2023-05-21T04:01:43.845Z,19.10
2023-05-21T04:02:43.974Z,20.20
2023-05-21T04:03:43.989Z,20.20
2023-05-21T04:04:43.831Z,18.30
2023-05-21T04:05:43.808Z,17.40
2023-05-21T04:06:43.793Z,18.50
2023-05-21T04:07:43.784Z,18.60
2023-05-21T04:08:43.782Z,19.40
2023-05-21T04:09:44.783Z,18.90
2023-05-21T04:10:43.747Z,18.60
2023-05-21T04:11:43.760Z,18.60
2023-05-21T04:12:43.748Z,21.60
2023-05-21T04:13:43.749Z,19.40
2023-05-21T04:14:43.755Z,28.10
2023-05-21T04:15:43.746Z,19.50
2023-05-21T04:16:43.728Z,19.70
2023-05-21T04:17:43.869Z,19.90
2023-05-21T04:18:45.552Z,26.10
2023-05-21T04:19:44.698Z,19.30
2023-05-21T04:20:43.691Z,18.90
2023-05-21T04:21:43.666Z,18.80
2023-05-21T04:22:44.502Z,18.40
2023-05-21T04:23:43.679Z,19.60
2023-05-21T04:24:43.659Z,18.50
2023-05-21T04:25:43.637Z,18.70
2023-05-21T04:26:43.640Z,19.30
2023-05-21T04:27:43.697Z,17.90
2023-05-21T04:28:43.624Z,19.30
2023-05-21T04:29:43.637Z,20.20
2023-05-21T04:30:43.584Z,18.90
2023-05-21T04:31:43.699Z,19.00
2023-05-21T04:32:43.606Z,18.80
2023-05-21T04:33:43.561Z,19.00
2023-05-21T04:34:43.566Z,17.50
2023-05-21T04:35:43.572Z,19.30
2023-05-21T04:36:43.551Z,21.70
2023-05-21T04:37:43.525Z,17.60
2023-05-21T04:38:43.515Z,19.90
2023-05-21T04:39:43.542Z,18.90
2023-05-21T04:40:43.512Z,18.30
2023-05-21T04:41:43.535Z,21.60
2023-05-21T04:42:43.510Z,19.50
2023-05-21T04:43:44.472Z,21.80
2023-05-21T04:44:43.483Z,20.40
2023-05-21T04:45:43.499Z,18.60
2023-05-21T04:46:43.511Z,19.50
2023-05-21T04:47:43.531Z,26.70
2023-05-21T04:48:43.454Z,19.20
2023-05-21T04:49:43.440Z,18.90
2023-05-21T04:50:43.463Z,18.70
2023-05-21T04:51:43.428Z,20.00
2023-05-21T04:52:43.405Z,19.80
2023-05-21T04:53:43.407Z,19.80
2023-05-21T04:54:43.406Z,19.20
2023-05-21T04:55:43.427Z,19.10
2023-05-21T04:56:43.440Z,19.60
2023-05-21T04:57:43.372Z,19.40
2023-05-21T04:58:43.371Z,18.40
2023-05-21T04:59:43.361Z,19.20
2023-05-21T05:00:43.379Z,19.40
2023-05-21T05:01:43.398Z,18.40
2023-05-21T05:02:43.438Z,17.60
2023-05-21T05:03:43.433Z,19.20
2023-05-21T05:04:43.429Z,18.10
2023-05-21T05:05:43.306Z,19.10
2023-05-21T05:06:43.314Z,19.30
2023-05-21T05:07:43.313Z,19.70
2023-05-21T05:08:43.290Z,19.30
2023-05-21T05:09:43.347Z,18.80
2023-05-21T05:10:43.319Z,25.10
2023-05-21T05:11:43.291Z,19.80
2023-05-21T05:12:43.249Z,19.10
2023-05-21T05:13:43.250Z,21.60
2023-05-21T05:14:43.260Z,20.40
2023-05-21T05:15:43.242Z,19.30
2023-05-21T05:16:43.278Z,19.60
2023-05-21T05:17:43.254Z,19.30
2023-05-21T05:18:43.220Z,19.60
2023-05-21T05:19:43.218Z,20.40
2023-05-21T05:20:43.194Z,19.40
2023-05-21T05:21:43.183Z,19.20
2023-05-21T05:22:43.174Z,22.60
2023-05-21T05:23:43.187Z,20.20
2023-05-21T05:24:43.189Z,20.00
2023-05-21T05:25:43.159Z,20.60
2023-05-21T05:26:43.178Z,24.50
2023-05-21T05:27:43.131Z,19.60
2023-05-21T05:28:43.175Z,19.80
2023-05-21T05:29:43.124Z,20.30
2023-05-21T05:30:43.129Z,20.20
2023-05-21T05:31:43.126Z,19.30
2023-05-21T05:32:43.157Z,19.80
2023-05-21T05:33:43.093Z,20.00
2023-05-21T05:34:43.092Z,20.60
2023-05-21T05:35:43.247Z,20.70
2023-05-21T05:36:43.094Z,20.70
2023-05-21T05:37:43.065Z,19.20
2023-05-21T05:38:43.056Z,20.20
2023-05-21T05:39:43.058Z,19.80
2023-05-21T05:40:43.025Z,20.40
2023-05-21T05:41:43.056Z,20.40
2023-05-21T05:42:43.067Z,26.90
2023-05-21T05:43:43.020Z,21.00
2023-05-21T05:44:43.000Z,22.80
2023-05-21T05:45:42.987Z,19.10
2023-05-21T05:46:43.087Z,20.60
2023-05-21T05:47:43.010Z,20.30
2023-05-21T05:48:42.972Z,20.10
2023-05-21T05:49:42.954Z,19.50
2023-05-21T05:50:43.100Z,20.40
2023-05-21T05:51:42.975Z,19.80
2023-05-21T05:52:43.975Z,18.60
2023-05-21T05:53:42.922Z,19.10
2023-05-21T05:54:42.906Z,20.40
2023-05-21T05:55:42.915Z,22.30
2023-05-21T05:56:42.906Z,20.40
2023-05-21T05:57:44.962Z,19.90
2023-05-21T05:58:42.884Z,20.20
2023-05-21T05:59:42.876Z,20.30
2023-05-21T06:00:42.874Z,20.10
2023-05-21T06:01:42.855Z,20.00
2023-05-21T06:02:42.972Z,21.00
2023-05-21T06:03:43.065Z,20.10
2023-05-21T06:04:42.833Z,20.30
2023-05-21T06:05:42.888Z,20.10
2023-05-21T06:06:42.935Z,23.50
2023-05-21T06:07:42.797Z,24.20
2023-05-21T06:08:42.798Z,23.80
2023-05-21T06:09:42.816Z,22.10
2023-05-21T06:10:42.787Z,31.10
2023-05-21T06:11:42.905Z,20.20
2023-05-21T06:12:42.803Z,20.50
2023-05-21T06:13:42.764Z,21.00
2023-05-21T06:14:45.053Z,19.70
2023-05-21T06:15:42.794Z,20.50
2023-05-21T06:16:42.803Z,21.00
2023-05-21T06:17:42.797Z,21.00
2023-05-21T06:18:42.787Z,26.20
2023-05-21T06:19:42.736Z,25.40
2023-05-21T06:20:42.816Z,20.90
2023-05-21T06:21:42.750Z,19.90
2023-05-21T06:22:42.711Z,20.20
2023-05-21T06:23:42.712Z,20.10
2023-05-21T06:24:42.702Z,20.50
2023-05-21T06:25:42.709Z,20.20
2023-05-21T06:26:42.695Z,20.60
2023-05-21T06:27:42.688Z,19.30
2023-05-21T06:28:42.672Z,22.90
2023-05-21T06:29:42.687Z,20.80
2023-05-21T06:30:42.666Z,20.30
2023-05-21T06:31:42.633Z,21.20
2023-05-21T06:32:42.725Z,21.70
2023-05-21T06:33:42.733Z,21.10
2023-05-21T06:34:42.627Z,22.80
2023-05-21T06:35:42.654Z,21.50
2023-05-21T06:36:42.610Z,20.60
2023-05-21T06:37:42.612Z,22.20
2023-05-21T06:38:42.642Z,21.60
2023-05-21T06:39:42.568Z,20.50
2023-05-21T06:40:42.552Z,20.90
2023-05-21T06:41:42.587Z,22.50
2023-05-21T06:42:42.543Z,20.40
2023-05-21T06:43:42.603Z,21.10
2023-05-21T06:44:42.545Z,20.60
2023-05-21T06:45:42.580Z,22.40
2023-05-21T06:46:42.552Z,21.10
2023-05-21T06:47:42.558Z,20.90
2023-05-21T06:48:42.543Z,20.70
2023-05-21T06:49:42.507Z,19.90
2023-05-21T06:50:42.502Z,21.30
2023-05-21T06:51:42.517Z,22.10
2023-05-21T06:52:42.489Z,20.80
2023-05-21T06:53:42.547Z,21.70
2023-05-21T06:54:42.453Z,21.60
2023-05-21T06:55:42.483Z,20.30
2023-05-21T06:56:42.431Z,20.90
2023-05-21T06:57:42.437Z,21.00
2023-05-21T06:58:42.450Z,20.80
2023-05-21T06:59:42.478Z,20.50
2023-05-21T07:00:42.405Z,22.10
2023-05-21T07:01:42.567Z,22.50
2023-05-21T07:02:42.536Z,21.60
2023-05-21T07:03:42.477Z,20.80
2023-05-21T07:04:42.426Z,21.20
2023-05-21T07:05:43.385Z,20.30
2023-05-21T07:06:42.397Z,24.00
2023-05-21T07:07:42.372Z,21.10
2023-05-21T07:08:42.387Z,21.50
2023-05-21T07:09:42.367Z,20.50
2023-05-21T07:10:42.360Z,20.00
2023-05-21T07:11:42.372Z,21.10
2023-05-21T07:12:42.366Z,23.20
2023-05-21T07:13:42.329Z,23.80
2023-05-21T07:14:42.370Z,22.50
2023-05-21T07:15:42.303Z,21.10
2023-05-21T07:16:42.331Z,22.20
2023-05-21T07:17:42.351Z,21.40
2023-05-21T07:18:42.339Z,23.10
2023-05-21T07:19:42.325Z,23.30
2023-05-21T07:20:42.285Z,23.90
2023-05-21T07:21:42.285Z,28.80
2023-05-21T07:22:42.269Z,26.20
2023-05-21T07:23:42.277Z,25.10
2023-05-21T07:24:42.252Z,23.70
2023-05-21T07:25:42.239Z,23.10
2023-05-21T07:26:42.263Z,26.20
2023-05-21T07:27:42.238Z,23.80
2023-05-21T07:28:42.211Z,23.70
2023-05-21T07:29:42.225Z,23.10
2023-05-21T07:30:42.276Z,24.80
2023-05-21T07:31:42.235Z,23.50
2023-05-21T07:32:42.265Z,23.50
2023-05-21T07:33:42.225Z,23.80
2023-05-21T07:34:42.172Z,24.60
2023-05-21T07:35:42.177Z,26.50
2023-05-21T07:36:42.181Z,25.90
2023-05-21T07:37:42.215Z,27.30
2023-05-21T07:38:42.186Z,26.20
2023-05-21T07:39:42.144Z,28.50
2023-05-21T07:40:43.146Z,27.20
2023-05-21T07:41:42.176Z,26.80
2023-05-21T07:42:42.173Z,26.10
2023-05-21T07:43:42.138Z,27.60
2023-05-21T07:44:42.144Z,29.80
2023-05-21T07:45:42.120Z,27.70
2023-05-21T07:46:42.208Z,26.90
2023-05-21T07:47:42.145Z,26.10
2023-05-21T07:48:42.098Z,31.90
2023-05-21T07:49:42.115Z,26.00
2023-05-21T07:50:42.084Z,27.80
2023-05-21T07:51:42.093Z,26.20
2023-05-21T07:52:42.154Z,26.60
2023-05-21T07:53:42.067Z,32.30
2023-05-21T07:54:42.055Z,26.90
2023-05-21T07:55:42.056Z,27.20
2023-05-21T07:56:42.063Z,30.70
2023-05-21T07:57:42.081Z,36.80
2023-05-21T07:58:42.042Z,34.70
2023-05-21T07:59:42.042Z,31.20
2023-05-21T08:00:42.033Z,27.40
2023-05-21T08:01:42.081Z,29.70
2023-05-21T08:02:42.226Z,32.50
2023-05-21T08:03:42.099Z,26.90
2023-05-21T08:04:42.029Z,25.90
2023-05-21T08:05:41.996Z,26.00
2023-05-21T08:06:41.992Z,28.30
2023-05-21T08:07:42.035Z,28.60
2023-05-21T08:08:42.014Z,26.70
2023-05-21T08:09:42.118Z,27.70
2023-05-21T08:10:42.003Z,28.00
2023-05-21T08:11:41.945Z,27.80
2023-05-21T08:12:41.941Z,27.20
2023-05-21T08:13:41.957Z,30.90
2023-05-21T08:14:41.933Z,26.70
2023-05-21T08:15:41.937Z,32.90
2023-05-21T08:16:42.091Z,26.10
2023-05-21T08:17:42.046Z,28.40
2023-05-21T08:18:41.971Z,28.60
2023-05-21T08:19:41.931Z,26.80
2023-05-21T08:20:41.931Z,30.40
2023-05-21T08:21:41.897Z,27.00
2023-05-21T08:22:41.900Z,26.20
2023-05-21T08:23:41.870Z,32.80
2023-05-21T08:24:41.868Z,27.60
2023-05-21T08:25:41.867Z,26.70
2023-05-21T08:26:41.945Z,30.80
2023-05-21T08:27:41.868Z,31.30
2023-05-21T08:28:41.885Z,32.40
2023-05-21T08:29:41.849Z,30.00
2023-05-21T08:30:41.845Z,33.00
2023-05-21T08:31:41.903Z,28.60
2023-05-21T08:32:41.850Z,28.50
2023-05-21T08:33:41.846Z,27.30
2023-05-21T08:34:41.803Z,33.70
2023-05-21T08:35:41.798Z,29.00
2023-05-21T08:36:41.840Z,33.00
2023-05-21T08:37:41.802Z,28.50
2023-05-21T08:38:41.908Z,25.80
2023-05-21T08:39:41.803Z,26.20
2023-05-21T08:40:41.789Z,38.20
2023-05-21T08:41:41.782Z,31.30
2023-05-21T08:42:41.747Z,25.50
2023-05-21T08:43:41.818Z,25.70
2023-05-21T08:44:41.777Z,25.60
2023-05-21T08:45:41.736Z,27.20
2023-05-21T08:46:41.746Z,27.10
2023-05-21T08:47:41.761Z,27.70
2023-05-21T08:48:41.707Z,27.40
2023-05-21T08:49:41.714Z,30.30
2023-05-21T08:50:41.776Z,26.50
2023-05-21T08:51:41.690Z,26.90
2023-05-21T08:52:41.709Z,26.80
2023-05-21T08:53:41.699Z,26.60
2023-05-21T08:54:41.659Z,32.00
2023-05-21T08:55:41.660Z,29.00
2023-05-21T08:56:41.667Z,36.60
2023-05-21T08:57:41.720Z,24.40
2023-05-21T08:58:41.650Z,26.30
2023-05-21T08:59:41.664Z,24.60
2023-05-21T09:00:41.650Z,24.50
2023-05-21T09:01:41.670Z,27.60
2023-05-21T09:02:41.661Z,26.40
2023-05-21T09:03:41.646Z,25.80
2023-05-21T09:04:41.763Z,24.40
2023-05-21T09:05:41.625Z,25.70
2023-05-21T09:06:41.604Z,25.10
2023-05-21T09:07:41.626Z,23.40
2023-05-21T09:08:41.654Z,23.50
2023-05-21T09:09:41.573Z,26.90
2023-05-21T09:10:41.625Z,25.40
2023-05-21T09:11:41.559Z,27.50
2023-05-21T09:12:41.576Z,25.10
2023-05-21T09:13:41.566Z,27.50
2023-05-21T09:14:42.589Z,26.10
2023-05-21T09:15:41.551Z,26.00
2023-05-21T09:16:41.586Z,27.20
2023-05-21T09:17:41.594Z,26.10
2023-05-21T09:18:41.527Z,26.80
2023-05-21T09:19:41.650Z,25.10
2023-05-21T09:20:41.572Z,24.60
2023-05-21T09:21:41.552Z,25.90
2023-05-21T09:22:41.513Z,26.10
2023-05-21T09:23:41.486Z,25.00
2023-05-21T09:24:41.513Z,25.40
2023-05-21T09:25:41.552Z,27.50
2023-05-21T09:26:41.535Z,26.60
2023-05-21T09:27:41.494Z,25.60
2023-05-21T09:28:41.472Z,30.30
2023-05-21T09:29:41.490Z,24.90
2023-05-21T09:30:41.616Z,22.60
2023-05-21T09:31:41.467Z,25.00
2023-05-21T09:32:41.485Z,22.90
2023-05-21T09:33:41.428Z,22.40
2023-05-21T09:34:41.531Z,23.40
2023-05-21T09:35:41.466Z,25.90
2023-05-21T09:36:41.422Z,24.70
2023-05-21T09:37:41.427Z,22.90
2023-05-21T09:38:41.412Z,23.80
2023-05-21T09:39:41.392Z,24.90
2023-05-21T09:40:41.422Z,23.10
2023-05-21T09:41:41.396Z,22.10
2023-05-21T09:42:41.412Z,22.30
2023-05-21T09:43:41.364Z,23.30
2023-05-21T09:44:41.364Z,23.00
2023-05-21T09:45:41.365Z,22.80
2023-05-21T09:46:41.802Z,24.40
2023-05-21T09:47:41.375Z,23.50
2023-05-21T09:48:41.390Z,26.00
2023-05-21T09:49:41.335Z,22.90
2023-05-21T09:50:41.316Z,22.20
2023-05-21T09:51:41.409Z,22.30
2023-05-21T09:52:42.237Z,22.50
2023-05-21T09:53:42.334Z,23.50
2023-05-21T09:54:41.356Z,22.30
2023-05-21T09:55:41.488Z,21.20
2023-05-21T09:56:41.304Z,22.80
2023-05-21T09:57:41.266Z,22.20
2023-05-21T09:58:41.262Z,23.10
2023-05-21T09:59:41.273Z,22.20
2023-05-21T10:00:41.315Z,24.50
2023-05-21T10:01:41.305Z,24.90
2023-05-21T10:02:41.315Z,23.20
2023-05-21T10:03:41.238Z,22.50
2023-05-21T10:04:42.076Z,23.20
2023-05-21T10:05:41.278Z,24.00
2023-05-21T10:06:41.220Z,23.20
2023-05-21T10:07:41.241Z,24.00
2023-05-21T10:08:41.198Z,24.40
2023-05-21T10:09:41.180Z,23.30
2023-05-21T10:10:41.190Z,22.90
2023-05-21T10:11:41.207Z,24.00
2023-05-21T10:12:41.203Z,22.30
2023-05-21T10:13:41.167Z,22.60
2023-05-21T10:14:41.205Z,22.30
2023-05-21T10:15:41.154Z,23.10
2023-05-21T10:16:41.247Z,21.30
2023-05-21T10:17:41.168Z,23.10
2023-05-21T10:18:41.137Z,22.50
2023-05-21T10:19:41.135Z,21.20
2023-05-21T10:20:41.125Z,23.50
2023-05-21T10:21:42.140Z,23.30
2023-05-21T10:22:41.132Z,23.90
2023-05-21T10:23:41.134Z,23.80
2023-05-21T10:24:41.170Z,23.10
2023-05-21T10:25:41.112Z,23.20
2023-05-21T10:26:41.064Z,23.10
2023-05-21T10:27:42.058Z,26.00
2023-05-21T10:28:41.106Z,24.10
2023-05-21T10:29:41.062Z,23.00
2023-05-21T10:30:41.055Z,23.10
2023-05-21T10:31:41.093Z,23.30
2023-05-21T10:32:41.145Z,22.60
2023-05-21T10:33:41.060Z,22.70
2023-05-21T10:34:41.070Z,24.40
2023-05-21T10:35:41.019Z,23.10
2023-05-21T10:36:41.008Z,22.90
2023-05-21T10:37:41.000Z,21.20
2023-05-21T10:38:41.637Z,22.40
2023-05-21T10:39:41.014Z,22.00
2023-05-21T10:40:41.008Z,22.00
2023-05-21T10:41:40.956Z,21.70
2023-05-21T10:42:40.963Z,22.40
2023-05-21T10:43:41.010Z,23.70
2023-05-21T10:44:41.034Z,22.20
2023-05-21T10:45:40.984Z,20.90
2023-05-21T10:46:41.006Z,20.70
2023-05-21T10:47:40.998Z,20.60
2023-05-21T10:48:40.956Z,21.40
2023-05-21T10:49:40.923Z,21.00
2023-05-21T10:50:40.935Z,20.40
2023-05-21T10:51:40.934Z,21.70
2023-05-21T10:52:40.938Z,20.90
2023-05-21T10:53:40.886Z,20.30
2023-05-21T10:54:40.891Z,20.90
2023-05-21T10:55:40.891Z,19.70
2023-05-21T10:56:40.905Z,19.90
2023-05-21T10:57:40.908Z,20.40
2023-05-21T10:58:40.845Z,19.70
2023-05-21T10:59:40.883Z,19.30
2023-05-21T11:00:40.872Z,20.90
2023-05-21T11:01:41.995Z,20.70
2023-05-21T11:02:40.921Z,20.30
2023-05-21T11:03:40.950Z,19.80
2023-05-21T11:04:40.868Z,19.60
2023-05-21T11:05:40.833Z,21.70
2023-05-21T11:06:40.797Z,21.00
2023-05-21T11:07:40.824Z,20.80
2023-05-21T11:08:40.830Z,19.80
2023-05-21T11:09:40.790Z,19.60
2023-05-21T11:10:41.009Z,20.60
2023-05-21T11:11:40.782Z,20.20
2023-05-21T11:12:40.811Z,20.50
2023-05-21T11:13:40.760Z,18.60
2023-05-21T11:14:40.825Z,19.30
2023-05-21T11:15:40.747Z,18.80
2023-05-21T11:16:40.810Z,18.60
2023-05-21T11:17:40.786Z,18.40
2023-05-21T11:18:40.741Z,18.90
2023-05-21T11:19:40.839Z,19.40
2023-05-21T11:20:40.703Z,19.00
2023-05-21T11:21:40.711Z,19.70
2023-05-21T11:22:40.712Z,17.70
2023-05-21T11:23:40.732Z,18.40
2023-05-21T11:24:40.674Z,17.60
2023-05-21T11:25:40.664Z,18.40
2023-05-21T11:26:40.664Z,18.60
2023-05-21T11:27:40.656Z,18.80
2023-05-21T11:28:40.636Z,18.60
2023-05-21T11:29:40.664Z,19.90
2023-05-21T11:30:41.233Z,18.80
2023-05-21T11:31:40.761Z,18.70
2023-05-21T11:32:40.678Z,18.40
2023-05-21T11:33:40.673Z,18.90
2023-05-21T11:34:40.634Z,18.50
2023-05-21T11:35:40.610Z,19.70
2023-05-21T11:36:40.591Z,19.20
2023-05-21T11:37:40.659Z,18.70
2023-05-21T11:38:40.590Z,18.60
2023-05-21T11:39:40.602Z,17.70
2023-05-21T11:40:40.570Z,17.50
2023-05-21T11:41:40.538Z,16.90
2023-05-21T11:42:40.593Z,16.90
2023-05-21T11:43:40.643Z,17.80
2023-05-21T11:44:40.572Z,18.90
2023-05-21T11:45:40.508Z,17.40
2023-05-21T11:46:40.550Z,17.90
2023-05-21T11:47:40.513Z,24.10
2023-05-21T11:48:40.521Z,20.00
2023-05-21T11:49:40.552Z,18.50
2023-05-21T11:50:40.495Z,16.70
2023-05-21T11:51:40.504Z,18.40
2023-05-21T11:52:40.462Z,18.20
2023-05-21T11:53:41.434Z,18.10
2023-05-21T11:54:40.480Z,17.50
2023-05-21T11:55:40.501Z,17.60
2023-05-21T11:56:40.490Z,18.00
2023-05-21T11:57:40.435Z,18.00
2023-05-21T11:58:40.434Z,16.80
2023-05-21T11:59:40.435Z,16.50
2023-05-21T12:00:40.496Z,17.60
2023-05-21T12:01:40.455Z,18.40
2023-05-21T12:02:40.526Z,15.90
2023-05-21T12:03:40.531Z,16.70
2023-05-21T12:04:40.472Z,16.30
2023-05-21T12:05:40.449Z,16.10
2023-05-21T12:06:40.433Z,15.90
2023-05-21T12:07:40.371Z,15.70
2023-05-21T12:08:40.365Z,16.00
2023-05-21T12:09:40.403Z,14.70
2023-05-21T12:10:40.380Z,14.70
2023-05-21T12:11:40.372Z,13.90
2023-05-21T12:12:53.822Z,14.60
2023-05-21T12:13:42.371Z,14.30
2023-05-21T12:14:40.340Z,15.10
2023-05-21T12:15:40.334Z,16.90
2023-05-21T12:16:40.409Z,15.20
2023-05-21T12:17:40.344Z,15.30
2023-05-21T12:18:40.343Z,15.20
2023-05-21T12:19:40.296Z,14.70
2023-05-21T12:20:40.296Z,15.20
2023-05-21T12:21:40.278Z,15.90
2023-05-21T12:22:40.307Z,15.10
2023-05-21T12:23:41.318Z,14.60
2023-05-21T12:24:40.269Z,13.40
2023-05-21T12:25:40.303Z,15.00
2023-05-21T12:26:40.275Z,14.60
2023-05-21T12:27:40.253Z,13.80
2023-05-21T12:28:40.233Z,15.70
2023-05-21T12:29:40.283Z,14.50
2023-05-21T12:30:40.213Z,13.90
2023-05-21T12:31:40.257Z,14.50
2023-05-21T12:32:40.245Z,14.00
2023-05-21T12:33:40.265Z,14.40
2023-05-21T12:34:40.262Z,14.40
2023-05-21T12:35:40.228Z,14.90
2023-05-21T12:36:40.201Z,14.30
2023-05-21T12:37:40.198Z,14.50
2023-05-21T12:38:40.197Z,15.30
2023-05-21T12:39:40.214Z,16.70
2023-05-21T12:40:40.634Z,15.20
2023-05-21T12:41:40.162Z,15.30
2023-05-21T12:42:40.228Z,16.40
2023-05-21T12:43:40.188Z,14.30
2023-05-21T12:44:40.133Z,15.00
2023-05-21T12:45:40.128Z,15.10
2023-05-21T12:46:40.246Z,14.10
2023-05-21T12:47:40.192Z,15.00
2023-05-21T12:48:40.114Z,14.00
2023-05-21T12:49:40.112Z,14.20
2023-05-21T12:50:40.141Z,15.20
2023-05-21T12:51:40.077Z,14.10
2023-05-21T12:52:40.076Z,15.70